sensor_id;sensor_type;location;lat;lon;timestamp;temperature;humidity
47114;DHT22;32867;51.556;6.832;2023-07-24T00:04:36;19.00;99.90
47114;DHT22;32867;51.556;6.832;2023-07-24T00:09:37;19.00;99.90
47114;DHT22;32867;51.556;6.832;2023-07-24T00:14:38;18.90;99.90
47114;DHT22;32867;51.556;6.832;2023-07-24T00:19:38;18.90;99.90
47114;DHT22;32867;51.556;6.832;2023-07-24T00:24:39;18.90;99.90
47114;DHT22;32867;51.556;6.832;2023-07-24T00:29:40;18.80;99.90
47114;DHT22;32867;51.556;6.832;2023-07-24T00:34:40;18.80;99.90
47114;DHT22;32867;51.556;6.832;2023-07-24T00:39:41;18.80;99.90
47114;DHT22;32867;51.556;6.832;2023-07-24T00:44:41;18.70;99.90
47114;DHT22;32867;51.556;6.832;2023-07-24T00:49:42;18.70;99.90
47114;DHT22;32867;51.556;6.832;2023-07-24T00:54:43;18.60;99.90
47114;DHT22;32867;51.556;6.832;2023-07-24T00:59:47;18.60;99.90
47114;DHT22;32867;51.556;6.832;2023-07-24T01:04:48;18.60;99.90
47114;DHT22;32867;51.556;6.832;2023-07-24T01:09:49;18.50;99.90
47114;DHT22;32867;51.556;6.832;2023-07-24T01:15:08;18.50;99.90
47114;DHT22;32867;51.556;6.832;2023-07-24T01:20:12;18.50;99.90
47114;DHT22;32867;51.556;6.832;2023-07-24T01:25:27;18.50;99.90
47114;DHT22;32867;51.556;6.832;2023-07-24T01:30:31;18.50;99.90
47114;DHT22;32867;51.556;6.832;2023-07-24T01:35:32;18.50;99.90
47114;DHT22;32867;51.556;6.832;2023-07-24T01:40:33;18.50;99.90
47114;DHT22;32867;51.556;6.832;2023-07-24T01:45:34;18.50;99.90
47114;DHT22;32867;51.556;6.832;2023-07-24T01:50:36;18.50;99.90
47114;DHT22;32867;51.556;6.832;2023-07-24T01:55:37;18.50;99.90
47114;DHT22;32867;51.556;6.832;2023-07-24T02:00:37;18.60;99.90
47114;DHT22;32867;51.556;6.832;2023-07-24T02:05:38;18.50;99.90
47114;DHT22;32867;51.556;6.832;2023-07-24T02:10:39;18.50;99.90
47114;DHT22;32867;51.556;6.832;2023-07-24T02:15:40;18.50;99.90
47114;DHT22;32867;51.556;6.832;2023-07-24T02:20:41;18.50;99.90
47114;DHT22;32867;51.556;6.832;2023-07-24T02:25:41;18.50;99.90
47114;DHT22;32867;51.556;6.832;2023-07-24T02:30:43;18.60;99.90
47114;DHT22;32867;51.556;6.832;2023-07-24T02:35:44;18.60;99.90
47114;DHT22;32867;51.556;6.832;2023-07-24T02:40:44;18.60;99.90
47114;DHT22;32867;51.556;6.832;2023-07-24T02:45:45;18.70;99.90
47114;DHT22;32867;51.556;6.832;2023-07-24T02:50:48;18.70;99.90
47114;DHT22;32867;51.556;6.832;2023-07-24T02:55:49;18.80;99.90
47114;DHT22;32867;51.556;6.832;2023-07-24T03:00:49;18.90;99.90
47114;DHT22;32867;51.556;6.832;2023-07-24T03:05:50;18.90;99.90
47114;DHT22;32867;51.556;6.832;2023-07-24T03:10:51;18.90;99.90
47114;DHT22;32867;51.556;6.832;2023-07-24T03:15:53;19.00;99.90
47114;DHT22;32867;51.556;6.832;2023-07-24T03:20:54;19.00;99.90
47114;DHT22;32867;51.556;6.832;2023-07-24T03:25:57;19.00;99.90
47114;DHT22;32867;51.556;6.832;2023-07-24T03:30:58;18.90;99.90
47114;DHT22;32867;51.556;6.832;2023-07-24T03:35:58;18.90;99.90
47114;DHT22;32867;51.556;6.832;2023-07-24T03:40:59;18.80;99.90
47114;DHT22;32867;51.556;6.832;2023-07-24T03:46:00;18.70;99.90
47114;DHT22;32867;51.556;6.832;2023-07-24T03:51:01;18.70;99.90
47114;DHT22;32867;51.556;6.832;2023-07-24T03:56:01;18.70;99.90
47114;DHT22;32867;51.556;6.832;2023-07-24T04:01:02;18.60;99.90
47114;DHT22;32867;51.556;6.832;2023-07-24T04:06:03;18.60;99.90
47114;DHT22;32867;51.556;6.832;2023-07-24T04:11:03;18.60;99.90
47114;DHT22;32867;51.556;6.832;2023-07-24T04:16:05;18.60;99.90
47114;DHT22;32867;51.556;6.832;2023-07-24T04:21:06;18.60;99.90
47114;DHT22;32867;51.556;6.832;2023-07-24T04:26:07;18.60;99.90
47114;DHT22;32867;51.556;6.832;2023-07-24T04:31:08;18.60;99.90
47114;DHT22;32867;51.556;6.832;2023-07-24T04:36:08;18.70;99.90
47114;DHT22;32867;51.556;6.832;2023-07-24T04:41:09;18.60;99.90
47114;DHT22;32867;51.556;6.832;2023-07-24T04:46:09;18.60;99.90
47114;DHT22;32867;51.556;6.832;2023-07-24T04:51:10;18.60;99.90
47114;DHT22;32867;51.556;6.832;2023-07-24T04:56:11;18.60;99.90
47114;DHT22;32867;51.556;6.832;2023-07-24T05:01:11;18.60;99.90
47114;DHT22;32867;51.556;6.832;2023-07-24T05:06:12;18.70;99.90
47114;DHT22;32867;51.556;6.832;2023-07-24T05:11:13;18.70;99.90
47114;DHT22;32867;51.556;6.832;2023-07-24T05:16:13;18.70;99.90
47114;DHT22;32867;51.556;6.832;2023-07-24T05:21:14;18.60;99.90
47114;DHT22;32867;51.556;6.832;2023-07-24T05:26:15;18.50;99.90
47114;DHT22;32867;51.556;6.832;2023-07-24T05:31:15;18.60;99.90
47114;DHT22;32867;51.556;6.832;2023-07-24T05:36:16;18.60;99.90
47114;DHT22;32867;51.556;6.832;2023-07-24T05:41:17;18.70;99.90
47114;DHT22;32867;51.556;6.832;2023-07-24T05:46:17;18.70;99.90
47114;DHT22;32867;51.556;6.832;2023-07-24T05:51:18;18.70;99.90
47114;DHT22;32867;51.556;6.832;2023-07-24T05:56:19;18.80;99.90
47114;DHT22;32867;51.556;6.832;2023-07-24T06:01:19;18.70;99.90
47114;DHT22;32867;51.556;6.832;2023-07-24T06:06:20;18.80;99.90
47114;DHT22;32867;51.556;6.832;2023-07-24T06:11:20;18.90;99.90
47114;DHT22;32867;51.556;6.832;2023-07-24T06:16:23;18.90;99.90
47114;DHT22;32867;51.556;6.832;2023-07-24T06:21:24;18.90;99.90
47114;DHT22;32867;51.556;6.832;2023-07-24T06:26:24;18.90;99.90
47114;DHT22;32867;51.556;6.832;2023-07-24T06:31:25;18.90;99.90
47114;DHT22;32867;51.556;6.832;2023-07-24T06:36:25;18.80;99.90
47114;DHT22;32867;51.556;6.832;2023-07-24T06:41:26;18.80;99.90
47114;DHT22;32867;51.556;6.832;2023-07-24T06:46:27;18.90;99.90
47114;DHT22;32867;51.556;6.832;2023-07-24T06:51:28;18.80;99.90
47114;DHT22;32867;51.556;6.832;2023-07-24T06:56:28;18.90;99.90
47114;DHT22;32867;51.556;6.832;2023-07-24T07:01:29;18.70;99.90
47114;DHT22;32867;51.556;6.832;2023-07-24T07:06:30;18.70;99.90
47114;DHT22;32867;51.556;6.832;2023-07-24T07:11:30;18.60;99.90
47114;DHT22;32867;51.556;6.832;2023-07-24T07:16:31;18.50;99.90
47114;DHT22;32867;51.556;6.832;2023-07-24T07:21:31;18.50;99.90
47114;DHT22;32867;51.556;6.832;2023-07-24T07:26:32;18.60;99.90
47114;DHT22;32867;51.556;6.832;2023-07-24T07:31:33;18.70;99.90
47114;DHT22;32867;51.556;6.832;2023-07-24T07:36:34;18.70;99.90
47114;DHT22;32867;51.556;6.832;2023-07-24T07:41:35;18.70;99.90
47114;DHT22;32867;51.556;6.832;2023-07-24T07:46:36;18.90;99.90
47114;DHT22;32867;51.556;6.832;2023-07-24T07:51:36;19.00;99.90
47114;DHT22;32867;51.556;6.832;2023-07-24T07:56:37;19.10;99.90
47114;DHT22;32867;51.556;6.832;2023-07-24T08:01:37;19.00;99.90
47114;DHT22;32867;51.556;6.832;2023-07-24T08:06:42;19.10;99.90
47114;DHT22;32867;51.556;6.832;2023-07-24T08:11:43;18.90;99.90
47114;DHT22;32867;51.556;6.832;2023-07-24T08:16:43;19.20;99.90
47114;DHT22;32867;51.556;6.832;2023-07-24T08:21:44;19.30;99.90
47114;DHT22;32867;51.556;6.832;2023-07-24T08:26:45;19.60;99.90
47114;DHT22;32867;51.556;6.832;2023-07-24T08:31:45;19.90;99.90
47114;DHT22;32867;51.556;6.832;2023-07-24T08:36:46;20.00;99.90
47114;DHT22;32867;51.556;6.832;2023-07-24T08:41:47;19.70;99.90
47114;DHT22;32867;51.556;6.832;2023-07-24T08:46:47;19.70;99.90
47114;DHT22;32867;51.556;6.832;2023-07-24T08:51:50;20.20;99.90
47114;DHT22;32867;51.556;6.832;2023-07-24T08:56:51;20.40;99.90
47114;DHT22;32867;51.556;6.832;2023-07-24T09:01:52;20.90;99.90
47114;DHT22;32867;51.556;6.832;2023-07-24T09:06:53;21.10;99.90
47114;DHT22;32867;51.556;6.832;2023-07-24T09:11:56;21.10;99.90
47114;DHT22;32867;51.556;6.832;2023-07-24T09:17:09;21.30;99.90
47114;DHT22;32867;51.556;6.832;2023-07-24T09:22:16;21.20;99.90
47114;DHT22;32867;51.556;6.832;2023-07-24T09:27:20;21.10;99.90
47114;DHT22;32867;51.556;6.832;2023-07-24T09:32:26;21.10;99.90
47114;DHT22;32867;51.556;6.832;2023-07-24T09:37:32;21.20;99.90
47114;DHT22;32867;51.556;6.832;2023-07-24T09:42:38;21.10;99.90
47114;DHT22;32867;51.556;6.832;2023-07-24T09:47:39;21.00;99.90
47114;DHT22;32867;51.556;6.832;2023-07-24T09:52:41;20.80;99.90
47114;DHT22;32867;51.556;6.832;2023-07-24T09:57:45;20.70;99.90
47114;DHT22;32867;51.556;6.832;2023-07-24T10:02:47;21.30;99.90
47114;DHT22;32867;51.556;6.832;2023-07-24T10:07:48;21.10;99.90
47114;DHT22;32867;51.556;6.832;2023-07-24T10:12:50;21.20;99.90
47114;DHT22;32867;51.556;6.832;2023-07-24T10:18:03;20.90;99.90
47114;DHT22;32867;51.556;6.832;2023-07-24T10:23:06;20.70;99.90
47114;DHT22;32867;51.556;6.832;2023-07-24T10:28:09;20.10;99.90
47114;DHT22;32867;51.556;6.832;2023-07-24T10:33:13;19.90;99.90
47114;DHT22;32867;51.556;6.832;2023-07-24T10:38:17;20.10;99.90
47114;DHT22;32867;51.556;6.832;2023-07-24T10:43:19;20.50;99.90
47114;DHT22;32867;51.556;6.832;2023-07-24T10:48:25;20.40;99.90
47114;DHT22;32867;51.556;6.832;2023-07-24T10:53:26;20.50;99.90
47114;DHT22;32867;51.556;6.832;2023-07-24T10:58:27;20.60;99.90
47114;DHT22;32867;51.556;6.832;2023-07-24T11:03:28;20.50;99.90
47114;DHT22;32867;51.556;6.832;2023-07-24T11:08:29;20.50;99.90
47114;DHT22;32867;51.556;6.832;2023-07-24T11:13:31;20.40;99.90
47114;DHT22;32867;51.556;6.832;2023-07-24T11:18:47;20.40;99.90
47114;DHT22;32867;51.556;6.832;2023-07-24T11:23:50;20.30;99.90
47114;DHT22;32867;51.556;6.832;2023-07-24T11:28:52;20.10;99.90
47114;DHT22;32867;51.556;6.832;2023-07-24T11:33:53;19.90;99.90
47114;DHT22;32867;51.556;6.832;2023-07-24T11:38:54;19.70;99.90
47114;DHT22;32867;51.556;6.832;2023-07-24T11:43:55;19.40;99.90
47114;DHT22;32867;51.556;6.832;2023-07-24T11:48:56;19.50;99.90
47114;DHT22;32867;51.556;6.832;2023-07-24T11:54:05;19.50;99.90
47114;DHT22;32867;51.556;6.832;2023-07-24T11:59:12;19.50;99.90
47114;DHT22;32867;51.556;6.832;2023-07-24T12:04:13;19.60;99.90
47114;DHT22;32867;51.556;6.832;2023-07-24T12:09:14;19.90;99.90
47114;DHT22;32867;51.556;6.832;2023-07-24T12:14:14;20.30;99.90
47114;DHT22;32867;51.556;6.832;2023-07-24T12:19:15;20.90;99.90
47114;DHT22;32867;51.556;6.832;2023-07-24T12:24:16;21.40;99.90
47114;DHT22;32867;51.556;6.832;2023-07-24T12:29:18;21.50;99.90
47114;DHT22;32867;51.556;6.832;2023-07-24T12:34:18;21.10;99.90
47114;DHT22;32867;51.556;6.832;2023-07-24T12:39:19;21.00;99.90
47114;DHT22;32867;51.556;6.832;2023-07-24T12:44:20;21.50;99.90
47114;DHT22;32867;51.556;6.832;2023-07-24T12:49:20;21.90;99.90
47114;DHT22;32867;51.556;6.832;2023-07-24T12:54:21;22.30;99.90
47114;DHT22;32867;51.556;6.832;2023-07-24T12:59:23;22.40;99.90
47114;DHT22;32867;51.556;6.832;2023-07-24T13:04:24;22.60;99.90
47114;DHT22;32867;51.556;6.832;2023-07-24T13:09:24;23.30;99.90
47114;DHT22;32867;51.556;6.832;2023-07-24T13:14:26;24.10;99.90
47114;DHT22;32867;51.556;6.832;2023-07-24T13:19:26;23.60;99.90
47114;DHT22;32867;51.556;6.832;2023-07-24T13:24:27;23.20;99.90
47114;DHT22;32867;51.556;6.832;2023-07-24T13:29:30;23.00;99.90
47114;DHT22;32867;51.556;6.832;2023-07-24T13:34:31;22.70;99.90
47114;DHT22;32867;51.556;6.832;2023-07-24T13:39:32;22.70;99.90
47114;DHT22;32867;51.556;6.832;2023-07-24T13:44:34;22.40;99.90
47114;DHT22;32867;51.556;6.832;2023-07-24T13:49:34;23.00;99.90
47114;DHT22;32867;51.556;6.832;2023-07-24T13:54:35;23.20;99.90
47114;DHT22;32867;51.556;6.832;2023-07-24T13:59:36;23.90;99.90
47114;DHT22;32867;51.556;6.832;2023-07-24T14:04:39;23.50;99.90
47114;DHT22;32867;51.556;6.832;2023-07-24T14:09:40;23.30;99.90
47114;DHT22;32867;51.556;6.832;2023-07-24T14:14:41;23.10;99.90
47114;DHT22;32867;51.556;6.832;2023-07-24T14:19:41;23.10;99.90
47114;DHT22;32867;51.556;6.832;2023-07-24T14:24:43;23.10;99.90
47114;DHT22;32867;51.556;6.832;2023-07-24T14:29:43;23.70;99.90
47114;DHT22;32867;51.556;6.832;2023-07-24T14:34:45;23.70;99.90
47114;DHT22;32867;51.556;6.832;2023-07-24T14:39:46;23.70;99.90
47114;DHT22;32867;51.556;6.832;2023-07-24T14:44:46;24.00;99.90
47114;DHT22;32867;51.556;6.832;2023-07-24T14:49:47;23.90;99.90
47114;DHT22;32867;51.556;6.832;2023-07-24T14:54:47;23.50;99.90
47114;DHT22;32867;51.556;6.832;2023-07-24T14:59:48;23.00;99.90
47114;DHT22;32867;51.556;6.832;2023-07-24T15:04:49;23.10;99.90
47114;DHT22;32867;51.556;6.832;2023-07-24T15:09:50;22.70;99.90
47114;DHT22;32867;51.556;6.832;2023-07-24T15:14:50;22.70;99.90
47114;DHT22;32867;51.556;6.832;2023-07-24T15:19:51;22.70;99.90
47114;DHT22;32867;51.556;6.832;2023-07-24T15:24:52;22.50;99.90
47114;DHT22;32867;51.556;6.832;2023-07-24T15:29:53;22.50;99.90
47114;DHT22;32867;51.556;6.832;2023-07-24T15:34:54;21.90;99.90
47114;DHT22;32867;51.556;6.832;2023-07-24T15:39:54;21.70;99.90
47114;DHT22;32867;51.556;6.832;2023-07-24T15:44:56;21.40;99.90
47114;DHT22;32867;51.556;6.832;2023-07-24T15:49:56;21.30;99.90
47114;DHT22;32867;51.556;6.832;2023-07-24T15:54:58;21.10;99.90
47114;DHT22;32867;51.556;6.832;2023-07-24T16:00:00;21.00;99.90
47114;DHT22;32867;51.556;6.832;2023-07-24T16:05:07;20.80;99.90
47114;DHT22;32867;51.556;6.832;2023-07-24T16:10:15;20.40;99.90
47114;DHT22;32867;51.556;6.832;2023-07-24T16:15:19;20.50;99.90
47114;DHT22;32867;51.556;6.832;2023-07-24T16:20:19;20.70;99.90
47114;DHT22;32867;51.556;6.832;2023-07-24T16:25:21;21.40;99.90
47114;DHT22;32867;51.556;6.832;2023-07-24T16:30:22;22.20;99.90
47114;DHT22;32867;51.556;6.832;2023-07-24T16:35:23;21.90;99.90
47114;DHT22;32867;51.556;6.832;2023-07-24T16:40:24;21.50;99.90
47114;DHT22;32867;51.556;6.832;2023-07-24T16:45:25;21.00;99.90
47114;DHT22;32867;51.556;6.832;2023-07-24T16:50:26;20.90;99.90
47114;DHT22;32867;51.556;6.832;2023-07-24T16:55:29;20.80;99.90
47114;DHT22;32867;51.556;6.832;2023-07-24T17:00:30;20.20;99.90
47114;DHT22;32867;51.556;6.832;2023-07-24T17:05:31;20.20;99.90
47114;DHT22;32867;51.556;6.832;2023-07-24T17:10:43;20.30;99.90
47114;DHT22;32867;51.556;6.832;2023-07-24T17:15:45;21.70;99.90
47114;DHT22;32867;51.556;6.832;2023-07-24T17:20:45;21.60;99.90
47114;DHT22;32867;51.556;6.832;2023-07-24T17:25:46;20.50;99.90
47114;DHT22;32867;51.556;6.832;2023-07-24T17:30:47;19.70;99.90
47114;DHT22;32867;51.556;6.832;2023-07-24T17:35:48;19.10;99.90
47114;DHT22;32867;51.556;6.832;2023-07-24T17:40:48;19.00;99.90
47114;DHT22;32867;51.556;6.832;2023-07-24T17:45:49;18.80;99.90
47114;DHT22;32867;51.556;6.832;2023-07-24T17:50:50;18.60;99.90
47114;DHT22;32867;51.556;6.832;2023-07-24T17:55:51;18.70;99.90
47114;DHT22;32867;51.556;6.832;2023-07-24T18:00:52;18.60;99.90
47114;DHT22;32867;51.556;6.832;2023-07-24T18:05:56;18.60;99.90
47114;DHT22;32867;51.556;6.832;2023-07-24T18:10:58;18.40;99.90
47114;DHT22;32867;51.556;6.832;2023-07-24T18:15:59;18.20;99.90
47114;DHT22;32867;51.556;6.832;2023-07-24T18:21:00;18.40;99.90
47114;DHT22;32867;51.556;6.832;2023-07-24T18:26:05;18.40;99.90
47114;DHT22;32867;51.556;6.832;2023-07-24T18:31:07;18.60;99.90
47114;DHT22;32867;51.556;6.832;2023-07-24T18:36:08;18.50;99.90
47114;DHT22;32867;51.556;6.832;2023-07-24T18:41:08;18.40;99.90
47114;DHT22;32867;51.556;6.832;2023-07-24T18:46:09;18.20;99.90
47114;DHT22;32867;51.556;6.832;2023-07-24T18:51:10;18.20;99.90
47114;DHT22;32867;51.556;6.832;2023-07-24T18:56:11;18.20;99.90
47114;DHT22;32867;51.556;6.832;2023-07-24T19:01:13;18.10;99.90
47114;DHT22;32867;51.556;6.832;2023-07-24T19:06:14;18.10;99.90
47114;DHT22;32867;51.556;6.832;2023-07-24T19:11:19;18.10;99.90
47114;DHT22;32867;51.556;6.832;2023-07-24T19:16:19;18.00;99.90
47114;DHT22;32867;51.556;6.832;2023-07-24T19:21:20;18.10;99.90
47114;DHT22;32867;51.556;6.832;2023-07-24T19:26:21;18.10;99.90
47114;DHT22;32867;51.556;6.832;2023-07-24T19:31:22;18.10;99.90
47114;DHT22;32867;51.556;6.832;2023-07-24T19:36:26;18.00;99.90
47114;DHT22;32867;51.556;6.832;2023-07-24T19:41:26;17.90;99.90
47114;DHT22;32867;51.556;6.832;2023-07-24T19:46:27;17.80;99.90
47114;DHT22;32867;51.556;6.832;2023-07-24T19:51:28;17.80;99.90
47114;DHT22;32867;51.556;6.832;2023-07-24T19:56:29;17.60;99.90
47114;DHT22;32867;51.556;6.832;2023-07-24T20:01:30;17.60;99.90
47114;DHT22;32867;51.556;6.832;2023-07-24T20:06:31;17.50;99.90
47114;DHT22;32867;51.556;6.832;2023-07-24T20:11:33;17.60;99.90
47114;DHT22;32867;51.556;6.832;2023-07-24T20:16:34;17.40;99.90
47114;DHT22;32867;51.556;6.832;2023-07-24T20:21:35;17.40;99.90
47114;DHT22;32867;51.556;6.832;2023-07-24T20:26:36;17.40;99.90
47114;DHT22;32867;51.556;6.832;2023-07-24T20:31:40;17.50;99.90
47114;DHT22;32867;51.556;6.832;2023-07-24T20:36:40;17.50;99.90
47114;DHT22;32867;51.556;6.832;2023-07-24T20:41:41;17.40;99.90
47114;DHT22;32867;51.556;6.832;2023-07-24T20:46:43;17.30;99.90
47114;DHT22;32867;51.556;6.832;2023-07-24T20:51:43;17.40;99.90
47114;DHT22;32867;51.556;6.832;2023-07-24T20:56:44;17.40;99.90
47114;DHT22;32867;51.556;6.832;2023-07-24T21:01:45;17.50;99.90
47114;DHT22;32867;51.556;6.832;2023-07-24T21:06:45;17.50;99.90
47114;DHT22;32867;51.556;6.832;2023-07-24T21:11:50;17.30;99.90
47114;DHT22;32867;51.556;6.832;2023-07-24T21:16:53;17.20;99.90
47114;DHT22;32867;51.556;6.832;2023-07-24T21:21:54;17.20;99.90
47114;DHT22;32867;51.556;6.832;2023-07-24T21:26:56;17.20;99.90
47114;DHT22;32867;51.556;6.832;2023-07-24T21:31:57;17.20;99.90
47114;DHT22;32867;51.556;6.832;2023-07-24T21:36:59;17.20;99.90
47114;DHT22;32867;51.556;6.832;2023-07-24T21:42:00;17.40;99.90
47114;DHT22;32867;51.556;6.832;2023-07-24T21:47:01;17.30;99.90
47114;DHT22;32867;51.556;6.832;2023-07-24T21:52:02;17.40;99.90
47114;DHT22;32867;51.556;6.832;2023-07-24T21:57:05;17.50;99.90
47114;DHT22;32867;51.556;6.832;2023-07-24T22:02:06;17.50;99.90
47114;DHT22;32867;51.556;6.832;2023-07-24T22:07:07;17.50;99.90
47114;DHT22;32867;51.556;6.832;2023-07-24T22:12:07;17.40;99.90
47114;DHT22;32867;51.556;6.832;2023-07-24T22:17:08;17.20;99.90
47114;DHT22;32867;51.556;6.832;2023-07-24T22:22:09;17.00;99.90
47114;DHT22;32867;51.556;6.832;2023-07-24T22:27:09;16.90;99.90
47114;DHT22;32867;51.556;6.832;2023-07-24T22:32:10;16.80;99.90
47114;DHT22;32867;51.556;6.832;2023-07-24T22:37:11;16.90;99.90
47114;DHT22;32867;51.556;6.832;2023-07-24T22:42:11;16.90;99.90
47114;DHT22;32867;51.556;6.832;2023-07-24T22:47:12;16.70;99.90
47114;DHT22;32867;51.556;6.832;2023-07-24T22:52:12;16.60;99.90
47114;DHT22;32867;51.556;6.832;2023-07-24T22:57:13;16.50;99.90
47114;DHT22;32867;51.556;6.832;2023-07-24T23:02:14;16.50;99.90
47114;DHT22;32867;51.556;6.832;2023-07-24T23:07:14;16.50;99.90
47114;DHT22;32867;51.556;6.832;2023-07-24T23:18:31;16.50;99.90
47114;DHT22;32867;51.556;6.832;2023-07-24T23:23:33;16.70;99.90
47114;DHT22;32867;51.556;6.832;2023-07-24T23:28:33;16.70;99.90
47114;DHT22;32867;51.556;6.832;2023-07-24T23:33:37;16.70;99.90
47114;DHT22;32867;51.556;6.832;2023-07-24T23:38:39;16.50;99.90
47114;DHT22;32867;51.556;6.832;2023-07-24T23:43:39;16.40;99.90
47114;DHT22;32867;51.556;6.832;2023-07-24T23:48:41;16.40;99.90
47114;DHT22;32867;51.556;6.832;2023-07-24T23:53:42;16.40;99.90
47114;DHT22;32867;51.556;6.832;2023-07-24T23:58:43;16.30;99.90
